sensor_id;sensor_type;location;lat;lon;timestamp;pressure;altitude;pressure_sealevel;temperature;humidity
78857;BME280;68207;50.078;19.936;2023-04-01T00:01:54;97291.95;;;10.32;62.52
78857;BME280;68207;50.078;19.936;2023-04-01T00:04:19;97292.73;;;10.33;62.52
78857;BME280;68207;50.078;19.936;2023-04-01T00:06:46;97293.70;;;10.32;62.50
78857;BME280;68207;50.078;19.936;2023-04-01T00:09:12;97298.02;;;10.30;62.75
78857;BME280;68207;50.078;19.936;2023-04-01T00:11:38;97292.73;;;10.27;62.66
78857;BME280;68207;50.078;19.936;2023-04-01T00:14:04;97281.66;;;10.24;62.97
78857;BME280;68207;50.078;19.936;2023-04-01T00:16:30;97279.77;;;10.21;62.76
78857;BME280;68207;50.078;19.936;2023-04-01T00:18:55;97280.25;;;10.18;62.83
78857;BME280;68207;50.078;19.936;2023-04-01T00:21:21;97272.77;;;10.14;62.92
78857;BME280;68207;50.078;19.936;2023-04-01T00:23:48;97271.69;;;10.12;63.03
78857;BME280;68207;50.078;19.936;2023-04-01T00:26:14;97271.47;;;10.10;63.44
78857;BME280;68207;50.078;19.936;2023-04-01T00:28:43;97262.48;;;10.05;63.68
78857;BME280;68207;50.078;19.936;2023-04-01T00:31:09;97267.05;;;10.03;63.47
78857;BME280;68207;50.078;19.936;2023-04-01T00:33:35;97265.36;;;10.00;63.50
78857;BME280;68207;50.078;19.936;2023-04-01T00:36:11;97265.30;;;9.96;63.82
78857;BME280;68207;50.078;19.936;2023-04-01T00:38:37;97262.89;;;9.95;63.67
78857;BME280;68207;50.078;19.936;2023-04-01T00:41:03;97260.81;;;9.94;63.99
78857;BME280;68207;50.078;19.936;2023-04-01T00:43:29;97256.66;;;9.95;64.03
78857;BME280;68207;50.078;19.936;2023-04-01T00:45:55;97258.24;;;9.95;64.10
78857;BME280;68207;50.078;19.936;2023-04-01T00:48:28;97259.68;;;9.94;64.31
78857;BME280;68207;50.078;19.936;2023-04-01T00:51:09;97260.39;;;9.91;64.46
78857;BME280;68207;50.078;19.936;2023-04-01T00:53:38;97260.14;;;9.89;64.33
78857;BME280;68207;50.078;19.936;2023-04-01T00:56:11;97259.63;;;9.88;64.34
78857;BME280;68207;50.078;19.936;2023-04-01T00:58:42;97253.80;;;9.87;64.18
78857;BME280;68207;50.078;19.936;2023-04-01T01:01:09;97255.80;;;9.86;64.38
78857;BME280;68207;50.078;19.936;2023-04-01T01:03:35;97255.20;;;9.84;64.70
78857;BME280;68207;50.078;19.936;2023-04-01T01:09:03;97265.08;;;9.79;64.76
78857;BME280;68207;50.078;19.936;2023-04-01T01:12:05;97263.14;;;9.80;64.86
78857;BME280;68207;50.078;19.936;2023-04-01T01:22:54;97274.23;;;9.80;65.15
78857;BME280;68207;50.078;19.936;2023-04-01T01:28:21;97271.23;;;9.75;65.31
78857;BME280;68207;50.078;19.936;2023-04-01T01:31:09;97272.17;;;9.72;65.35
78857;BME280;68207;50.078;19.936;2023-04-01T01:34:05;97274.37;;;9.70;65.33
78857;BME280;68207;50.078;19.936;2023-04-01T01:36:36;97277.77;;;9.69;65.53
78857;BME280;68207;50.078;19.936;2023-04-01T01:39:05;97280.48;;;9.67;65.66
78857;BME280;68207;50.078;19.936;2023-04-01T01:41:34;97285.88;;;9.65;65.99
78857;BME280;68207;50.078;19.936;2023-04-01T01:44:02;97282.31;;;9.66;65.91
78857;BME280;68207;50.078;19.936;2023-04-01T01:46:30;97285.45;;;9.69;65.82
78857;BME280;68207;50.078;19.936;2023-04-01T01:48:55;97287.60;;;9.70;66.03
78857;BME280;68207;50.078;19.936;2023-04-01T01:51:26;97287.23;;;9.68;65.90
78857;BME280;68207;50.078;19.936;2023-04-01T01:53:52;97286.10;;;9.67;65.83
78857;BME280;68207;50.078;19.936;2023-04-01T01:56:18;97287.61;;;9.66;66.26
78857;BME280;68207;50.078;19.936;2023-04-01T01:58:49;97290.39;;;9.63;66.24
78857;BME280;68207;50.078;19.936;2023-04-01T02:01:21;97292.44;;;9.59;66.38
78857;BME280;68207;50.078;19.936;2023-04-01T02:03:50;97287.55;;;9.56;66.61
78857;BME280;68207;50.078;19.936;2023-04-01T02:06:19;97282.08;;;9.53;66.75
78857;BME280;68207;50.078;19.936;2023-04-01T02:08:50;97282.08;;;9.53;66.82
78857;BME280;68207;50.078;19.936;2023-04-01T02:11:19;97278.81;;;9.55;66.79
78857;BME280;68207;50.078;19.936;2023-04-01T02:16:36;97276.62;;;9.55;66.83
78857;BME280;68207;50.078;19.936;2023-04-01T02:19:04;97280.56;;;9.53;67.04
78857;BME280;68207;50.078;19.936;2023-04-01T02:21:33;97283.33;;;9.53;67.04
78857;BME280;68207;50.078;19.936;2023-04-01T02:24:02;97286.14;;;9.51;67.00
78857;BME280;68207;50.078;19.936;2023-04-01T02:26:29;97287.94;;;9.50;67.35
78857;BME280;68207;50.078;19.936;2023-04-01T02:28:56;97290.41;;;9.48;67.34
78857;BME280;68207;50.078;19.936;2023-04-01T02:31:25;97292.01;;;9.48;67.56
78857;BME280;68207;50.078;19.936;2023-04-01T02:33:50;97293.50;;;9.48;67.39
78857;BME280;68207;50.078;19.936;2023-04-01T02:36:17;97295.50;;;9.47;67.61
78857;BME280;68207;50.078;19.936;2023-04-01T02:38:44;97302.23;;;9.46;67.78
78857;BME280;68207;50.078;19.936;2023-04-01T02:41:10;97306.55;;;9.45;67.61
78857;BME280;68207;50.078;19.936;2023-04-01T02:43:36;97303.33;;;9.44;67.72
78857;BME280;68207;50.078;19.936;2023-04-01T02:46:01;97307.03;;;9.44;67.67
78857;BME280;68207;50.078;19.936;2023-04-01T02:48:27;97311.57;;;9.47;67.73
78857;BME280;68207;50.078;19.936;2023-04-01T02:50:52;97314.58;;;9.48;67.61
78857;BME280;68207;50.078;19.936;2023-04-01T02:53:18;97316.10;;;9.49;67.49
78857;BME280;68207;50.078;19.936;2023-04-01T02:55:43;97315.48;;;9.50;67.42
78857;BME280;68207;50.078;19.936;2023-04-01T02:58:09;97311.14;;;9.51;67.36
78857;BME280;68207;50.078;19.936;2023-04-01T03:00:35;97313.89;;;9.51;67.57
78857;BME280;68207;50.078;19.936;2023-04-01T03:03:00;97315.89;;;9.51;67.45
78857;BME280;68207;50.078;19.936;2023-04-01T03:05:27;97318.90;;;9.48;67.53
78857;BME280;68207;50.078;19.936;2023-04-01T03:07:52;97321.87;;;9.50;67.34
78857;BME280;68207;50.078;19.936;2023-04-01T03:10:18;97325.38;;;9.55;67.16
78857;BME280;68207;50.078;19.936;2023-04-01T03:12:43;97321.50;;;9.58;67.35
78857;BME280;68207;50.078;19.936;2023-04-01T03:15:11;97321.98;;;9.59;67.03
78857;BME280;68207;50.078;19.936;2023-04-01T03:17:37;97325.16;;;9.59;67.08
78857;BME280;68207;50.078;19.936;2023-04-01T03:20:03;97324.73;;;9.58;67.09
78857;BME280;68207;50.078;19.936;2023-04-01T03:22:30;97320.95;;;9.57;67.13
78857;BME280;68207;50.078;19.936;2023-04-01T03:24:55;97317.87;;;9.57;67.13
78857;BME280;68207;50.078;19.936;2023-04-01T03:27:21;97311.33;;;9.55;67.00
78857;BME280;68207;50.078;19.936;2023-04-01T03:29:46;97308.36;;;9.54;67.13
78857;BME280;68207;50.078;19.936;2023-04-01T03:32:12;97309.85;;;9.52;67.12
78857;BME280;68207;50.078;19.936;2023-04-01T03:34:37;97309.05;;;9.53;67.10
78857;BME280;68207;50.078;19.936;2023-04-01T03:37:02;97307.70;;;9.55;67.15
78857;BME280;68207;50.078;19.936;2023-04-01T03:39:27;97312.54;;;9.58;66.94
78857;BME280;68207;50.078;19.936;2023-04-01T03:41:53;97310.59;;;9.60;66.96
78857;BME280;68207;50.078;19.936;2023-04-01T03:44:18;97311.36;;;9.59;67.03
78857;BME280;68207;50.078;19.936;2023-04-01T03:46:44;97315.23;;;9.59;66.96
78857;BME280;68207;50.078;19.936;2023-04-01T03:49:10;97320.88;;;9.58;66.99
78857;BME280;68207;50.078;19.936;2023-04-01T03:51:41;97318.48;;;9.56;67.25
78857;BME280;68207;50.078;19.936;2023-04-01T03:54:07;97320.77;;;9.53;67.15
78857;BME280;68207;50.078;19.936;2023-04-01T03:56:32;97320.15;;;9.53;67.07
78857;BME280;68207;50.078;19.936;2023-04-01T03:58:58;97320.73;;;9.51;67.39
78857;BME280;68207;50.078;19.936;2023-04-01T04:01:23;97320.80;;;9.52;67.15
78857;BME280;68207;50.078;19.936;2023-04-01T04:03:50;97323.30;;;9.54;67.42
78857;BME280;68207;50.078;19.936;2023-04-01T04:06:18;97325.24;;;9.54;67.29
78857;BME280;68207;50.078;19.936;2023-04-01T04:08:44;97324.80;;;9.54;67.34
78857;BME280;68207;50.078;19.936;2023-04-01T04:11:09;97325.57;;;9.53;67.31
78857;BME280;68207;50.078;19.936;2023-04-01T04:13:35;97330.65;;;9.52;67.50
78857;BME280;68207;50.078;19.936;2023-04-01T04:16:02;97330.63;;;9.50;67.48
78857;BME280;68207;50.078;19.936;2023-04-01T04:18:27;97333.55;;;9.49;67.50
78857;BME280;68207;50.078;19.936;2023-04-01T04:20:52;97334.20;;;9.45;67.54
78857;BME280;68207;50.078;19.936;2023-04-01T04:23:18;97338.02;;;9.46;67.50
78857;BME280;68207;50.078;19.936;2023-04-01T04:26:16;97338.55;;;9.47;67.50
78857;BME280;68207;50.078;19.936;2023-04-01T04:28:41;97337.88;;;9.52;67.48
78857;BME280;68207;50.078;19.936;2023-04-01T04:31:07;97337.44;;;9.57;67.52
78857;BME280;68207;50.078;19.936;2023-04-01T04:33:33;97338.38;;;9.60;67.52
78857;BME280;68207;50.078;19.936;2023-04-01T04:35:59;97334.59;;;9.61;67.42
78857;BME280;68207;50.078;19.936;2023-04-01T04:38:26;97338.05;;;9.60;67.29
78857;BME280;68207;50.078;19.936;2023-04-01T04:40:51;97338.38;;;9.60;67.44
78857;BME280;68207;50.078;19.936;2023-04-01T04:43:18;97335.81;;;9.58;67.47
78857;BME280;68207;50.078;19.936;2023-04-01T04:45:43;97334.47;;;9.56;67.44
78857;BME280;68207;50.078;19.936;2023-04-01T04:48:10;97333.11;;;9.56;67.53
78857;BME280;68207;50.078;19.936;2023-04-01T04:50:39;97335.05;;;9.55;67.54
78857;BME280;68207;50.078;19.936;2023-04-01T04:53:05;97336.91;;;9.58;67.51
78857;BME280;68207;50.078;19.936;2023-04-01T04:55:30;97337.81;;;9.60;67.52
78857;BME280;68207;50.078;19.936;2023-04-01T04:57:56;97338.08;;;9.62;67.56
78857;BME280;68207;50.078;19.936;2023-04-01T05:00:21;97334.75;;;9.63;67.32
78857;BME280;68207;50.078;19.936;2023-04-01T05:02:46;97336.59;;;9.64;67.54
78857;BME280;68207;50.078;19.936;2023-04-01T05:05:12;97332.52;;;9.61;67.57
78857;BME280;68207;50.078;19.936;2023-04-01T05:07:37;97338.33;;;9.64;67.37
78857;BME280;68207;50.078;19.936;2023-04-01T05:10:03;97336.66;;;9.65;67.47
78857;BME280;68207;50.078;19.936;2023-04-01T05:12:28;97338.70;;;9.64;67.58
78857;BME280;68207;50.078;19.936;2023-04-01T05:14:54;97342.25;;;9.64;67.84
78857;BME280;68207;50.078;19.936;2023-04-01T05:17:19;97346.10;;;9.67;67.69
78857;BME280;68207;50.078;19.936;2023-04-01T05:19:44;97344.86;;;9.72;67.74
78857;BME280;68207;50.078;19.936;2023-04-01T05:22:10;97346.58;;;9.77;67.52
78857;BME280;68207;50.078;19.936;2023-04-01T05:24:35;97344.41;;;9.81;67.65
78857;BME280;68207;50.078;19.936;2023-04-01T05:27:00;97347.77;;;9.84;67.55
78857;BME280;68207;50.078;19.936;2023-04-01T05:29:26;97340.32;;;9.86;67.76
78857;BME280;68207;50.078;19.936;2023-04-01T05:31:51;97341.41;;;9.91;67.70
78857;BME280;68207;50.078;19.936;2023-04-01T05:34:17;97334.84;;;9.94;67.72
78857;BME280;68207;50.078;19.936;2023-04-01T05:36:43;97340.90;;;10.00;67.92
78857;BME280;68207;50.078;19.936;2023-04-01T05:39:08;97337.13;;;10.06;67.87
78857;BME280;68207;50.078;19.936;2023-04-01T05:41:37;97337.33;;;10.10;67.80
78857;BME280;68207;50.078;19.936;2023-04-01T05:44:04;97336.49;;;10.12;67.85
78857;BME280;68207;50.078;19.936;2023-04-01T05:46:30;97330.39;;;10.17;67.72
78857;BME280;68207;50.078;19.936;2023-04-01T05:48:56;97333.37;;;10.22;67.83
78857;BME280;68207;50.078;19.936;2023-04-01T05:51:21;97336.58;;;10.19;67.96
78857;BME280;68207;50.078;19.936;2023-04-01T05:53:47;97338.54;;;10.14;68.20
78857;BME280;68207;50.078;19.936;2023-04-01T05:56:12;97334.86;;;10.13;68.07
78857;BME280;68207;50.078;19.936;2023-04-01T05:58:38;97335.84;;;10.13;68.19
78857;BME280;68207;50.078;19.936;2023-04-01T06:01:06;97336.23;;;10.16;68.30
78857;BME280;68207;50.078;19.936;2023-04-01T06:03:33;97332.27;;;10.21;68.13
78857;BME280;68207;50.078;19.936;2023-04-01T06:05:58;97341.21;;;10.25;68.21
78857;BME280;68207;50.078;19.936;2023-04-01T06:08:27;97326.71;;;10.24;68.25
78857;BME280;68207;50.078;19.936;2023-04-01T06:19:07;97337.15;;;10.35;67.87
78857;BME280;68207;50.078;19.936;2023-04-01T06:30:27;97335.95;;;10.52;67.29
78857;BME280;68207;50.078;19.936;2023-04-01T06:44:25;97346.01;;;10.96;66.51
78857;BME280;68207;50.078;19.936;2023-04-01T06:47:08;97346.95;;;11.09;66.29
78857;BME280;68207;50.078;19.936;2023-04-01T06:55:29;97350.52;;;11.16;65.09
78857;BME280;68207;50.078;19.936;2023-04-01T06:57:59;97355.89;;;11.15;65.11
78857;BME280;68207;50.078;19.936;2023-04-01T07:00:31;97349.80;;;11.15;65.11
78857;BME280;68207;50.078;19.936;2023-04-01T07:03:23;97354.02;;;11.23;64.84
78857;BME280;68207;50.078;19.936;2023-04-01T07:05:52;97351.26;;;11.27;64.58
78857;BME280;68207;50.078;19.936;2023-04-01T07:08:24;97343.42;;;11.36;64.27
78857;BME280;68207;50.078;19.936;2023-04-01T07:11:02;97345.73;;;11.45;64.09
78857;BME280;68207;50.078;19.936;2023-04-01T07:13:46;97345.61;;;11.53;63.93
78857;BME280;68207;50.078;19.936;2023-04-01T07:16:35;97347.08;;;11.62;63.80
78857;BME280;68207;50.078;19.936;2023-04-01T07:19:18;97345.45;;;11.69;63.05
78857;BME280;68207;50.078;19.936;2023-04-01T07:21:49;97347.65;;;11.73;63.10
78857;BME280;68207;50.078;19.936;2023-04-01T07:24:24;97344.69;;;11.80;63.00
78857;BME280;68207;50.078;19.936;2023-04-01T07:26:54;97344.89;;;11.85;62.69
78857;BME280;68207;50.078;19.936;2023-04-01T07:29:20;97346.16;;;11.89;62.12
78857;BME280;68207;50.078;19.936;2023-04-01T07:31:58;97344.95;;;11.91;62.17
78857;BME280;68207;50.078;19.936;2023-04-01T07:34:42;97345.28;;;11.99;62.15
78857;BME280;68207;50.078;19.936;2023-04-01T07:37:52;97342.42;;;12.06;62.04
78857;BME280;68207;50.078;19.936;2023-04-01T07:43:13;97337.81;;;12.12;61.89
78857;BME280;68207;50.078;19.936;2023-04-01T07:48:32;97339.02;;;12.18;61.64
78857;BME280;68207;50.078;19.936;2023-04-01T07:53:41;97344.37;;;12.25;61.30
78857;BME280;68207;50.078;19.936;2023-04-01T07:56:30;97343.48;;;12.28;60.39
78857;BME280;68207;50.078;19.936;2023-04-01T08:04:50;97346.81;;;12.25;60.12
78857;BME280;68207;50.078;19.936;2023-04-01T08:07:47;97348.24;;;12.25;60.05
78857;BME280;68207;50.078;19.936;2023-04-01T08:10:27;97349.37;;;12.31;60.22
78857;BME280;68207;50.078;19.936;2023-04-01T08:13:07;97349.08;;;12.38;59.97
78857;BME280;68207;50.078;19.936;2023-04-01T08:15:46;97350.30;;;12.44;59.86
78857;BME280;68207;50.078;19.936;2023-04-01T08:18:28;97353.51;;;12.50;59.56
78857;BME280;68207;50.078;19.936;2023-04-01T08:21:05;97355.00;;;12.52;59.69
78857;BME280;68207;50.078;19.936;2023-04-01T08:23:41;97358.10;;;12.58;59.48
78857;BME280;68207;50.078;19.936;2023-04-01T08:26:19;97357.15;;;12.60;59.22
78857;BME280;68207;50.078;19.936;2023-04-01T08:31:32;97364.23;;;12.59;59.09
78857;BME280;68207;50.078;19.936;2023-04-01T08:34:02;97363.52;;;12.60;59.29
78857;BME280;68207;50.078;19.936;2023-04-01T08:36:37;97370.94;;;12.55;58.52
78857;BME280;68207;50.078;19.936;2023-04-01T08:39:09;97360.39;;;12.45;58.95
78857;BME280;68207;50.078;19.936;2023-04-01T08:42:01;97359.21;;;12.48;59.03
78857;BME280;68207;50.078;19.936;2023-04-01T08:48:10;97357.80;;;12.90;58.59
78857;BME280;68207;50.078;19.936;2023-04-01T08:53:54;97357.70;;;13.37;57.73
78857;BME280;68207;50.078;19.936;2023-04-01T08:56:40;97357.84;;;13.43;56.81
78857;BME280;68207;50.078;19.936;2023-04-01T08:59:24;97361.25;;;13.48;56.45
78857;BME280;68207;50.078;19.936;2023-04-01T09:08:05;97358.27;;;13.57;56.38
78857;BME280;68207;50.078;19.936;2023-04-01T09:18:39;97351.44;;;14.18;54.61
78857;BME280;68207;50.078;19.936;2023-04-01T09:21:41;97348.23;;;14.06;54.32
78857;BME280;68207;50.078;19.936;2023-04-01T09:24:35;97351.26;;;14.02;54.94
78857;BME280;68207;50.078;19.936;2023-04-01T09:29:58;97349.45;;;14.43;53.87
78857;BME280;68207;50.078;19.936;2023-04-01T09:32:49;97346.42;;;14.63;53.27
78857;BME280;68207;50.078;19.936;2023-04-01T09:43:28;97348.58;;;14.73;53.24
78857;BME280;68207;50.078;19.936;2023-04-01T09:52:09;97365.63;;;14.14;54.88
78857;BME280;68207;50.078;19.936;2023-04-01T09:54:54;97366.87;;;14.00;55.45
78857;BME280;68207;50.078;19.936;2023-04-01T10:03:37;97374.94;;;13.82;56.14
78857;BME280;68207;50.078;19.936;2023-04-01T10:09:28;97383.91;;;13.62;56.13
78857;BME280;68207;50.078;19.936;2023-04-01T10:26:08;97392.27;;;13.34;58.20
78857;BME280;68207;50.078;19.936;2023-04-01T10:36:50;97395.30;;;13.19;58.59
78857;BME280;68207;50.078;19.936;2023-04-01T10:51:01;97386.02;;;13.35;57.28
78857;BME280;68207;50.078;19.936;2023-04-01T10:53:45;97384.55;;;13.40;56.80
78857;BME280;68207;50.078;19.936;2023-04-01T10:56:33;97389.04;;;13.49;56.83
78857;BME280;68207;50.078;19.936;2023-04-01T11:09:59;97390.05;;;13.47;56.97
78857;BME280;68207;50.078;19.936;2023-04-01T11:18:17;97398.00;;;13.29;57.00
78857;BME280;68207;50.078;19.936;2023-04-01T11:21:12;97396.07;;;13.55;56.98
78857;BME280;68207;50.078;19.936;2023-04-01T11:23:50;97386.45;;;13.96;55.90
78857;BME280;68207;50.078;19.936;2023-04-01T11:29:23;97385.36;;;14.50;53.65
78857;BME280;68207;50.078;19.936;2023-04-01T11:34:43;97386.09;;;14.47;52.83
78857;BME280;68207;50.078;19.936;2023-04-01T11:43:36;97397.52;;;13.86;57.24
78857;BME280;68207;50.078;19.936;2023-04-01T11:47:01;97399.27;;;13.79;58.72
78857;BME280;68207;50.078;19.936;2023-04-01T11:52:13;97400.04;;;13.60;59.83
78857;BME280;68207;50.078;19.936;2023-04-01T12:00:38;97400.82;;;13.31;60.60
78857;BME280;68207;50.078;19.936;2023-04-01T12:05:52;97396.38;;;13.83;60.47
78857;BME280;68207;50.078;19.936;2023-04-01T12:08:44;97391.40;;;14.36;59.56
78857;BME280;68207;50.078;19.936;2023-04-01T12:11:27;97393.15;;;14.91;56.76
78857;BME280;68207;50.078;19.936;2023-04-01T12:14:27;97391.91;;;14.99;54.70
78857;BME280;68207;50.078;19.936;2023-04-01T12:17:10;97392.98;;;14.77;55.31
78857;BME280;68207;50.078;19.936;2023-04-01T12:27:59;97399.52;;;14.44;56.34
78857;BME280;68207;50.078;19.936;2023-04-01T12:33:36;97392.52;;;15.15;55.77
78857;BME280;68207;50.078;19.936;2023-04-01T12:36:09;97395.04;;;15.29;54.51
78857;BME280;68207;50.078;19.936;2023-04-01T12:41:44;97399.02;;;15.34;54.64
78857;BME280;68207;50.078;19.936;2023-04-01T13:01:15;97420.30;;;14.34;56.75
78857;BME280;68207;50.078;19.936;2023-04-01T13:09:19;97421.58;;;14.66;56.86
78857;BME280;68207;50.078;19.936;2023-04-01T13:20:02;97426.17;;;14.32;54.72
78857;BME280;68207;50.078;19.936;2023-04-01T13:28:26;97423.81;;;13.59;57.16
78857;BME280;68207;50.078;19.936;2023-04-01T13:42:11;97442.83;;;12.93;61.59
78857;BME280;68207;50.078;19.936;2023-04-01T13:44:49;97448.47;;;12.86;61.93
78857;BME280;68207;50.078;19.936;2023-04-01T13:50:42;97448.05;;;12.67;62.52
78857;BME280;68207;50.078;19.936;2023-04-01T13:53:17;97441.70;;;12.61;62.42
78857;BME280;68207;50.078;19.936;2023-04-01T14:01:49;97437.63;;;12.69;62.17
78857;BME280;68207;50.078;19.936;2023-04-01T14:04:27;97439.09;;;12.89;62.08
78857;BME280;68207;50.078;19.936;2023-04-01T14:12:29;97432.81;;;13.27;60.62
78857;BME280;68207;50.078;19.936;2023-04-01T14:15:05;97435.30;;;13.31;60.57
78857;BME280;68207;50.078;19.936;2023-04-01T14:30:46;97431.54;;;13.85;58.39
78857;BME280;68207;50.078;19.936;2023-04-01T14:33:25;97444.66;;;13.97;58.09
78857;BME280;68207;50.078;19.936;2023-04-01T14:41:30;97440.05;;;13.81;59.10
78857;BME280;68207;50.078;19.936;2023-04-01T14:49:36;97453.79;;;13.60;59.69
78857;BME280;68207;50.078;19.936;2023-04-01T14:52:11;97460.16;;;13.49;59.82
78857;BME280;68207;50.078;19.936;2023-04-01T14:54:42;97455.90;;;13.35;60.55
78857;BME280;68207;50.078;19.936;2023-04-01T14:57:11;97455.86;;;13.28;60.86
78857;BME280;68207;50.078;19.936;2023-04-01T14:59:49;97454.71;;;13.23;61.02
78857;BME280;68207;50.078;19.936;2023-04-01T15:08:29;97461.84;;;13.07;62.52
78857;BME280;68207;50.078;19.936;2023-04-01T15:11:15;97461.48;;;12.93;62.70
78857;BME280;68207;50.078;19.936;2023-04-01T15:14:12;97466.33;;;12.78;63.32
78857;BME280;68207;50.078;19.936;2023-04-01T15:19:39;97472.48;;;12.76;63.51
78857;BME280;68207;50.078;19.936;2023-04-01T15:28:01;97484.65;;;12.60;65.78
78857;BME280;68207;50.078;19.936;2023-04-01T15:30:53;97490.90;;;12.49;66.52
78857;BME280;68207;50.078;19.936;2023-04-01T15:36:49;97497.23;;;12.30;67.73
78857;BME280;68207;50.078;19.936;2023-04-01T15:39:24;97498.73;;;12.16;67.63
78857;BME280;68207;50.078;19.936;2023-04-01T15:42:19;97503.15;;;12.07;68.01
78857;BME280;68207;50.078;19.936;2023-04-01T15:47:34;97508.46;;;11.97;67.94
78857;BME280;68207;50.078;19.936;2023-04-01T15:50:18;97509.83;;;11.91;68.03
78857;BME280;68207;50.078;19.936;2023-04-01T15:53:17;97512.81;;;11.94;68.36
78857;BME280;68207;50.078;19.936;2023-04-01T15:56:09;97516.33;;;11.99;68.20
78857;BME280;68207;50.078;19.936;2023-04-01T16:01:35;97521.17;;;11.98;68.16
78857;BME280;68207;50.078;19.936;2023-04-01T16:04:43;97520.66;;;11.95;68.23
78857;BME280;68207;50.078;19.936;2023-04-01T16:10:05;97526.45;;;11.89;68.26
78857;BME280;68207;50.078;19.936;2023-04-01T16:12:48;97527.70;;;11.86;68.29
78857;BME280;68207;50.078;19.936;2023-04-01T16:18:31;97531.78;;;11.86;68.13
78857;BME280;68207;50.078;19.936;2023-04-01T16:21:14;97533.90;;;11.86;68.34
78857;BME280;68207;50.078;19.936;2023-04-01T16:24:12;97536.94;;;11.85;68.60
78857;BME280;68207;50.078;19.936;2023-04-01T16:29:36;97531.98;;;11.76;68.80
78857;BME280;68207;50.078;19.936;2023-04-01T16:32:27;97538.54;;;11.69;68.98
78857;BME280;68207;50.078;19.936;2023-04-01T16:35:01;97542.20;;;11.61;69.27
78857;BME280;68207;50.078;19.936;2023-04-01T16:37:36;97545.77;;;11.60;69.26
78857;BME280;68207;50.078;19.936;2023-04-01T16:42:53;97551.29;;;11.61;69.30
78857;BME280;68207;50.078;19.936;2023-04-01T16:45:34;97556.55;;;11.61;69.45
78857;BME280;68207;50.078;19.936;2023-04-01T16:48:17;97559.41;;;11.60;69.70
78857;BME280;68207;50.078;19.936;2023-04-01T16:58:34;97580.88;;;11.36;70.51
78857;BME280;68207;50.078;19.936;2023-04-01T17:01:07;97582.27;;;11.35;70.27
78857;BME280;68207;50.078;19.936;2023-04-01T17:03:44;97586.92;;;11.35;70.69
78857;BME280;68207;50.078;19.936;2023-04-01T17:09:22;97591.23;;;11.28;70.72
78857;BME280;68207;50.078;19.936;2023-04-01T17:14:33;97603.08;;;11.14;70.99
78857;BME280;68207;50.078;19.936;2023-04-01T17:17:14;97604.89;;;11.11;70.92
78857;BME280;68207;50.078;19.936;2023-04-01T17:22:43;97616.45;;;11.03;71.31
78857;BME280;68207;50.078;19.936;2023-04-01T17:27:59;97620.04;;;10.90;71.65
78857;BME280;68207;50.078;19.936;2023-04-01T17:30:38;97623.14;;;10.82;71.72
78857;BME280;68207;50.078;19.936;2023-04-01T17:36:08;97624.33;;;10.74;72.48
78857;BME280;68207;50.078;19.936;2023-04-01T17:44:16;97634.77;;;10.76;72.84
78857;BME280;68207;50.078;19.936;2023-04-01T17:49:37;97639.10;;;10.72;73.52
78857;BME280;68207;50.078;19.936;2023-04-01T17:52:26;97642.73;;;10.64;73.69
78857;BME280;68207;50.078;19.936;2023-04-01T17:55:27;97638.70;;;10.60;73.72
78857;BME280;68207;50.078;19.936;2023-04-01T17:58:19;97645.63;;;10.53;74.25
78857;BME280;68207;50.078;19.936;2023-04-01T18:03:54;97649.21;;;10.50;74.21
78857;BME280;68207;50.078;19.936;2023-04-01T18:09:12;97654.02;;;10.39;74.10
78857;BME280;68207;50.078;19.936;2023-04-01T18:20:32;97663.77;;;10.39;74.01
78857;BME280;68207;50.078;19.936;2023-04-01T18:26:13;97667.92;;;10.35;74.27
78857;BME280;68207;50.078;19.936;2023-04-01T18:28:51;97667.78;;;10.33;74.31
78857;BME280;68207;50.078;19.936;2023-04-01T18:31:23;97670.55;;;10.33;74.42
78857;BME280;68207;50.078;19.936;2023-04-01T18:37:14;97678.22;;;10.26;74.44
78857;BME280;68207;50.078;19.936;2023-04-01T18:39:08;97682.89;;;10.23;74.60
78857;BME280;68207;50.078;19.936;2023-04-01T18:50:21;97690.98;;;10.19;74.88
78857;BME280;68207;50.078;19.936;2023-04-01T18:52:52;97694.30;;;10.21;75.04
78857;BME280;68207;50.078;19.936;2023-04-01T18:55:22;97699.59;;;10.18;75.07
78857;BME280;68207;50.078;19.936;2023-04-01T18:57:51;97706.32;;;10.15;75.09
78857;BME280;68207;50.078;19.936;2023-04-01T19:00:21;97707.97;;;10.16;75.37
78857;BME280;68207;50.078;19.936;2023-04-01T19:03:21;97706.55;;;10.16;75.07
78857;BME280;68207;50.078;19.936;2023-04-01T19:05:51;97710.39;;;10.19;75.16
78857;BME280;68207;50.078;19.936;2023-04-01T19:08:30;97713.32;;;10.20;75.32
78857;BME280;68207;50.078;19.936;2023-04-01T19:11:26;97716.20;;;10.18;75.23
78857;BME280;68207;50.078;19.936;2023-04-01T19:14:17;97716.19;;;10.15;75.41
78857;BME280;68207;50.078;19.936;2023-04-01T19:19:55;97726.70;;;10.14;75.29
78857;BME280;68207;50.078;19.936;2023-04-01T19:25:25;97728.62;;;10.10;75.69
78857;BME280;68207;50.078;19.936;2023-04-01T19:28:38;97731.82;;;10.07;75.49
78857;BME280;68207;50.078;19.936;2023-04-01T19:31:30;97739.20;;;10.06;75.57
78857;BME280;68207;50.078;19.936;2023-04-01T19:36:56;97748.89;;;10.15;75.76
78857;BME280;68207;50.078;19.936;2023-04-01T19:45:23;97756.58;;;10.20;75.68
78857;BME280;68207;50.078;19.936;2023-04-01T19:51:06;97762.91;;;10.28;75.62
78857;BME280;68207;50.078;19.936;2023-04-01T19:53:58;97760.27;;;10.28;75.54
78857;BME280;68207;50.078;19.936;2023-04-01T19:56:49;97762.84;;;10.26;75.71
78857;BME280;68207;50.078;19.936;2023-04-01T19:59:31;97766.52;;;10.21;75.89
78857;BME280;68207;50.078;19.936;2023-04-01T20:02:17;97771.76;;;10.17;76.03
78857;BME280;68207;50.078;19.936;2023-04-01T20:04:51;97768.65;;;10.15;76.37
78857;BME280;68207;50.078;19.936;2023-04-01T20:07:24;97771.63;;;10.17;76.36
78857;BME280;68207;50.078;19.936;2023-04-01T20:15:40;97788.02;;;10.11;76.75